Time;durP1;ratioP1;P1;durP2;ratioP2;P2;SDS_P1;SDS_P2;PMS_P1;PMS_P2;Temp;Humidity;BMP_temperature;BMP_pressure;BME280_temperature;BME280_humidity;BME280_pressure;Samples;Min_cycle;Max_cycle;Signal;HPM_P1;HPM_P2
2021/09/30 00:01:04;;;;;;;15.70;14.70;;;;;;;;;;5116837;28;20797;-89
2021/09/30 00:03:31;;;;;;;15.93;14.60;;;;;;;;;;5116660;28;20414;-90
2021/09/30 00:05:59;;;;;;;15.80;14.70;;;;;;;;;;5116291;28;20258;-89
2021/09/30 00:08:26;;;;;;;15.07;14.07;;;;;;;;;;5116893;28;20775;-89
2021/09/30 00:10:59;;;;;;;14.97;13.97;;;;;;;;;;5116658;28;20798;-89
2021/09/30 00:13:44;;;;;;;14.63;13.83;;;;;;;;;;5098256;28;21014;-89
2021/09/30 00:33:03;;;;;;;15.13;14.00;;;;;;;;;;5053371;28;20430;-87
2021/09/30 00:41:20;;;;;;;15.30;14.33;;;;;;;;;;5053533;28;20418;-86
2021/09/30 00:46:44;;;;;;;14.60;13.80;;;;;;;;;;5053189;28;20246;-87
2021/09/30 00:49:28;;;;;;;15.03;14.10;;;;;;;;;;5053674;28;20905;-87
2021/09/30 00:52:01;;;;;;;15.20;14.25;;;;;;;;;;5053090;28;20457;-88
2021/09/30 00:54:42;;;;;;;14.40;13.47;;;;;;;;;;5053135;28;20207;-87
2021/09/30 01:20:12;;;;;;;15.68;14.57;;;;;;;;;;5115118;28;20394;-88
2021/09/30 02:22:11;;;;;;;16.00;14.98;;;;;;;;;;4942668;29;20244;-88
2021/09/30 02:30:46;;;;;;;17.97;16.40;;;;;;;;;;4992071;28;20242;-88
2021/09/30 02:58:30;;;;;;;17.65;16.25;;;;;;;;;;4976500;28;20234;-89
2021/09/30 03:00:59;;;;;;;17.33;15.97;;;;;;;;;;4976691;28;20308;-89
2021/09/30 03:03:27;;;;;;;16.80;15.60;;;;;;;;;;4976531;28;20449;-89
2021/09/30 03:05:56;;;;;;;18.10;16.47;;;;;;;;;;4976258;28;21016;-89
2021/09/30 03:08:25;;;;;;;16.90;15.80;;;;;;;;;;4976489;28;20421;-89
2021/09/30 03:10:54;;;;;;;17.90;16.40;;;;;;;;;;4976304;28;20498;-89
2021/09/30 03:13:22;;;;;;;19.33;17.53;;;;;;;;;;4976255;28;20413;-89
2021/09/30 03:15:56;;;;;;;17.95;16.65;;;;;;;;;;4976442;28;20425;-89
2021/09/30 03:18:30;;;;;;;17.50;15.93;;;;;;;;;;5011652;28;20211;-90
2021/09/30 03:23:47;;;;;;;18.52;17.02;;;;;;;;;;5063834;28;20522;-90
2021/09/30 03:26:15;;;;;;;18.23;16.73;;;;;;;;;;5097016;28;20221;-89
2021/09/30 03:28:43;;;;;;;19.40;17.63;;;;;;;;;;5096865;28;20444;-89
2021/09/30 03:31:11;;;;;;;19.87;18.17;;;;;;;;;;5096964;28;20810;-89
2021/09/30 03:33:39;;;;;;;18.33;17.03;;;;;;;;;;5096803;28;20442;-88
2021/09/30 03:36:07;;;;;;;16.73;15.63;;;;;;;;;;5096728;28;20406;-89
2021/09/30 03:38:35;;;;;;;17.88;16.40;;;;;;;;;;5097093;28;20871;-90
2021/09/30 03:41:04;;;;;;;15.80;14.80;;;;;;;;;;5097061;28;20194;-89
2021/09/30 03:43:31;;;;;;;18.10;16.20;;;;;;;;;;5096405;28;20449;-90
2021/09/30 03:45:59;;;;;;;17.53;16.37;;;;;;;;;;5096932;28;20484;-90
2021/09/30 03:48:28;;;;;;;16.13;14.90;;;;;;;;;;5096686;28;20770;-89
2021/09/30 03:51:06;;;;;;;16.27;15.20;;;;;;;;;;5096734;28;20785;-89
2021/09/30 03:53:45;;;;;;;16.50;15.37;;;;;;;;;;5096244;28;20981;-89
2021/09/30 03:56:31;;;;;;;16.97;15.80;;;;;;;;;;5096121;28;20933;-89
2021/09/30 04:01:43;;;;;;;16.97;15.80;;;;;;;;;;5096436;28;20391;-89
2021/09/30 04:04:11;;;;;;;17.97;16.50;;;;;;;;;;5098411;28;20798;-88
2021/09/30 04:06:39;;;;;;;17.83;16.53;;;;;;;;;;5098701;28;20464;-88
2021/09/30 04:09:08;;;;;;;18.13;16.38;;;;;;;;;;5116702;28;20495;-90
2021/09/30 04:11:37;;;;;;;18.27;16.83;;;;;;;;;;5116542;28;20206;-89
2021/09/30 04:14:04;;;;;;;18.67;17.00;;;;;;;;;;5116125;28;20201;-88
2021/09/30 04:16:32;;;;;;;17.43;15.70;;;;;;;;;;5116520;28;20443;-89
2021/09/30 04:18:59;;;;;;;17.83;16.47;;;;;;;;;;5116147;28;20421;-89
2021/09/30 04:21:26;;;;;;;17.75;16.27;;;;;;;;;;5116488;28;20411;-89
2021/09/30 04:23:54;;;;;;;18.37;17.00;;;;;;;;;;5116027;28;20279;-89
2021/09/30 04:26:21;;;;;;;17.97;16.40;;;;;;;;;;5116381;28;20461;-89
2021/09/30 04:28:50;;;;;;;18.00;16.40;;;;;;;;;;5116410;28;20444;-89
2021/09/30 04:31:18;;;;;;;17.47;15.90;;;;;;;;;;5097860;28;20425;-89
2021/09/30 04:33:45;;;;;;;18.50;16.87;;;;;;;;;;5116041;28;20458;-89
2021/09/30 04:36:12;;;;;;;17.90;16.43;;;;;;;;;;5115843;28;20446;-89
2021/09/30 04:38:40;;;;;;;18.60;17.30;;;;;;;;;;5115986;28;20414;-89
2021/09/30 04:41:07;;;;;;;18.17;16.60;;;;;;;;;;5098124;28;20426;-89
2021/09/30 04:43:34;;;;;;;17.80;16.30;;;;;;;;;;5115713;28;20928;-89
2021/09/30 04:46:03;;;;;;;19.93;18.00;;;;;;;;;;5116103;28;20449;-88
2021/09/30 04:48:30;;;;;;;18.10;16.75;;;;;;;;;;5115962;28;20451;-89
2021/09/30 04:50:58;;;;;;;18.93;17.43;;;;;;;;;;5115857;28;20194;-89
2021/09/30 04:53:25;;;;;;;19.80;18.25;;;;;;;;;;5115806;28;20905;-89
2021/09/30 04:55:52;;;;;;;17.80;16.50;;;;;;;;;;5115731;28;20193;-89
2021/09/30 04:58:20;;;;;;;19.15;17.83;;;;;;;;;;5097388;28;20422;-89
2021/09/30 05:00:47;;;;;;;20.42;18.45;;;;;;;;;;5115312;28;20225;-89
2021/09/30 05:03:16;;;;;;;18.77;17.40;;;;;;;;;;5115431;28;20200;-88
2021/09/30 05:05:44;;;;;;;19.70;17.98;;;;;;;;;;5115046;28;20225;-89
2021/09/30 05:08:11;;;;;;;17.90;16.63;;;;;;;;;;5115721;28;20197;-88
2021/09/30 05:10:40;;;;;;;18.27;16.80;;;;;;;;;;5115571;28;20193;-89
2021/09/30 05:13:09;;;;;;;18.83;17.30;;;;;;;;;;5115407;28;20424;-88
2021/09/30 05:15:37;;;;;;;19.17;17.73;;;;;;;;;;5114942;28;20535;-88
2021/09/30 05:18:04;;;;;;;18.60;17.00;;;;;;;;;;5115329;28;20187;-89
2021/09/30 05:20:34;;;;;;;19.27;17.30;;;;;;;;;;5115322;28;20454;-89
2021/09/30 05:23:01;;;;;;;20.52;18.17;;;;;;;;;;5114762;28;20431;-89
2021/09/30 05:25:28;;;;;;;19.45;17.85;;;;;;;;;;5114714;28;20229;-92
2021/09/30 05:27:56;;;;;;;18.10;16.57;;;;;;;;;;5115504;28;20201;-88
2021/09/30 05:30:24;;;;;;;19.52;17.60;;;;;;;;;;5115777;28;20436;-89
2021/09/30 05:32:51;;;;;;;19.42;17.63;;;;;;;;;;5115365;28;20193;-90
2021/09/30 05:35:19;;;;;;;21.25;18.48;;;;;;;;;;5114805;28;20231;-88
2021/09/30 05:37:48;;;;;;;19.45;17.65;;;;;;;;;;5114848;28;20195;-87
2021/09/30 05:40:15;;;;;;;19.90;18.10;;;;;;;;;;5115129;28;20190;-88
2021/09/30 05:42:43;;;;;;;20.70;18.50;;;;;;;;;;5114443;28;20432;-88
2021/09/30 05:45:12;;;;;;;19.35;17.52;;;;;;;;;;5115081;28;20450;-88
2021/09/30 05:47:39;;;;;;;19.50;17.50;;;;;;;;;;5096749;28;20698;-89
2021/09/30 05:50:07;;;;;;;19.77;18.20;;;;;;;;;;5114523;28;20472;-84
2021/09/30 05:52:35;;;;;;;19.23;17.50;;;;;;;;;;5114264;28;20442;-84
2021/09/30 05:55:04;;;;;;;18.80;17.10;;;;;;;;;;5114262;28;20913;-85
2021/09/30 05:57:31;;;;;;;20.20;18.55;;;;;;;;;;5114495;28;20498;-90
2021/09/30 06:00:08;;;;;;;18.23;16.67;;;;;;;;;;5114717;28;20210;-90
2021/09/30 06:11:16;;;;;;;18.17;16.67;;;;;;;;;;5099058;28;20234;-85
2021/09/30 06:13:48;;;;;;;18.20;16.60;;;;;;;;;;5114226;28;20491;-84
2021/09/30 06:16:18;;;;;;;18.00;16.40;;;;;;;;;;5114481;28;20257;-85
2021/09/30 06:18:45;;;;;;;17.90;16.47;;;;;;;;;;5113807;28;20478;-85
2021/09/30 06:21:13;;;;;;;16.90;15.40;;;;;;;;;;5113913;28;20437;-85
2021/09/30 06:23:41;;;;;;;16.50;15.40;;;;;;;;;;5113742;28;20471;-85
2021/09/30 06:26:09;;;;;;;15.53;14.27;;;;;;;;;;5114606;28;20813;-85
2021/09/30 06:28:37;;;;;;;16.73;15.60;;;;;;;;;;5117911;28;20902;-85
2021/09/30 06:31:04;;;;;;;15.60;14.57;;;;;;;;;;5117888;28;20458;-84
2021/09/30 06:33:32;;;;;;;16.27;14.90;;;;;;;;;;5118250;28;20436;-84
2021/09/30 06:35:59;;;;;;;17.13;15.43;;;;;;;;;;5117776;28;20446;-85
2021/09/30 06:38:26;;;;;;;16.93;15.67;;;;;;;;;;5117807;28;20805;-83
2021/09/30 06:40:53;;;;;;;15.00;13.90;;;;;;;;;;5117653;28;20417;-84
2021/09/30 06:43:22;;;;;;;16.48;15.32;;;;;;;;;;5117521;28;20417;-84
2021/09/30 06:45:51;;;;;;;16.33;15.13;;;;;;;;;;5117012;28;20209;-84
2021/09/30 06:48:18;;;;;;;16.47;15.07;;;;;;;;;;5116997;28;20418;-84
2021/09/30 06:50:46;;;;;;;15.87;14.63;;;;;;;;;;5117577;28;20439;-83
2021/09/30 06:53:14;;;;;;;15.20;13.70;;;;;;;;;;5099104;28;20495;-82
2021/09/30 06:55:42;;;;;;;16.73;14.97;;;;;;;;;;5117381;28;20417;-83
2021/09/30 06:58:10;;;;;;;15.27;13.90;;;;;;;;;;5117515;28;20442;-83
2021/09/30 07:00:40;;;;;;;15.37;14.30;;;;;;;;;;5117198;28;20414;-84
2021/09/30 07:03:08;;;;;;;15.73;14.40;;;;;;;;;;5117058;28;20436;-87
2021/09/30 07:05:36;;;;;;;16.73;15.23;;;;;;;;;;5117249;28;20472;-85
2021/09/30 07:08:06;;;;;;;15.90;14.80;;;;;;;;;;5117557;28;20464;-81
2021/09/30 07:10:33;;;;;;;16.47;14.90;;;;;;;;;;5117771;28;20450;-82
2021/09/30 07:13:00;;;;;;;16.73;15.60;;;;;;;;;;5118784;28;20470;-84
2021/09/30 07:15:27;;;;;;;16.73;15.73;;;;;;;;;;5117133;28;20410;-82
2021/09/30 07:17:57;;;;;;;17.47;16.23;;;;;;;;;;5117386;28;20439;-85
2021/09/30 07:20:24;;;;;;;16.40;15.20;;;;;;;;;;5117083;28;20449;-86
2021/09/30 07:22:51;;;;;;;17.13;15.83;;;;;;;;;;5117364;28;20422;-85
2021/09/30 07:25:22;;;;;;;18.10;16.40;;;;;;;;;;5114655;28;20452;-82
2021/09/30 07:27:49;;;;;;;16.93;15.57;;;;;;;;;;5116593;28;20513;-83
2021/09/30 07:30:17;;;;;;;17.37;15.97;;;;;;;;;;5118304;28;20438;-85
2021/09/30 07:32:44;;;;;;;16.40;15.40;;;;;;;;;;5117185;28;20434;-83
2021/09/30 07:35:13;;;;;;;16.60;15.50;;;;;;;;;;5116763;28;20418;-85
2021/09/30 07:37:41;;;;;;;16.87;15.50;;;;;;;;;;5116529;28;20445;-84
2021/09/30 07:40:09;;;;;;;17.63;16.37;;;;;;;;;;5116483;28;20439;-84
2021/09/30 07:42:36;;;;;;;17.73;16.53;;;;;;;;;;5116429;28;20593;-84
2021/09/30 07:45:04;;;;;;;20.30;17.10;;;;;;;;;;5116621;28;20407;-84
2021/09/30 07:47:31;;;;;;;18.00;16.50;;;;;;;;;;5116739;28;20490;-84
2021/09/30 07:49:59;;;;;;;18.77;17.73;;;;;;;;;;5116844;28;20417;-85
2021/09/30 07:52:28;;;;;;;19.33;17.83;;;;;;;;;;5116643;28;20527;-85
2021/09/30 07:54:55;;;;;;;19.23;17.90;;;;;;;;;;5116975;28;20421;-85
2021/09/30 07:57:22;;;;;;;20.40;18.90;;;;;;;;;;5116189;28;20443;-85
2021/09/30 07:59:50;;;;;;;19.00;17.70;;;;;;;;;;5116749;28;20442;-86
2021/09/30 08:02:17;;;;;;;19.90;18.40;;;;;;;;;;5116656;28;20782;-85
2021/09/30 08:04:45;;;;;;;19.17;18.00;;;;;;;;;;5115982;28;20472;-84
2021/09/30 08:07:12;;;;;;;21.03;19.40;;;;;;;;;;5098032;28;20466;-84
2021/09/30 08:09:41;;;;;;;20.73;19.07;;;;;;;;;;5116340;28;20410;-84
2021/09/30 08:12:09;;;;;;;21.53;19.93;;;;;;;;;;5116238;28;20447;-85
2021/09/30 08:14:36;;;;;;;20.93;19.17;;;;;;;;;;5115707;28;20887;-85
2021/09/30 08:17:04;;;;;;;21.40;19.80;;;;;;;;;;5115735;28;20989;-85
2021/09/30 08:19:31;;;;;;;22.30;20.70;;;;;;;;;;5115672;28;20480;-85
2021/09/30 08:21:59;;;;;;;20.33;19.13;;;;;;;;;;5115795;28;20418;-83
2021/09/30 08:24:26;;;;;;;23.37;21.40;;;;;;;;;;5115343;28;20453;-82
2021/09/30 08:26:56;;;;;;;21.50;20.17;;;;;;;;;;5114613;28;20560;-83
2021/09/30 08:29:23;;;;;;;21.97;20.37;;;;;;;;;;5115163;28;20429;-83
2021/09/30 08:31:51;;;;;;;22.30;20.70;;;;;;;;;;5115604;28;20439;-86
2021/09/30 08:34:18;;;;;;;22.67;20.83;;;;;;;;;;5115627;28;20438;-84
2021/09/30 08:36:46;;;;;;;24.00;21.77;;;;;;;;;;5080407;28;20429;-82
2021/09/30 08:39:13;;;;;;;24.43;22.30;;;;;;;;;;5114898;28;20827;-83
2021/09/30 08:41:41;;;;;;;22.30;20.80;;;;;;;;;;5115436;28;20918;-85
2021/09/30 08:44:09;;;;;;;21.07;19.90;;;;;;;;;;5115798;28;20436;-85
2021/09/30 08:46:37;;;;;;;24.37;22.53;;;;;;;;;;5097322;28;20446;-85
2021/09/30 08:49:05;;;;;;;22.93;21.43;;;;;;;;;;5114667;28;20438;-90
2021/09/30 08:51:35;;;;;;;23.43;21.50;;;;;;;;;;5115051;28;20435;-95
2021/09/30 08:54:03;;;;;;;23.17;21.47;;;;;;;;;;5097081;28;20448;-85
2021/09/30 08:56:33;;;;;;;23.70;22.10;;;;;;;;;;5114960;28;20439;-84
2021/09/30 08:59:14;;;;;;;23.13;21.73;;;;;;;;;;5115738;28;20420;-84
2021/09/30 09:01:41;;;;;;;24.53;22.03;;;;;;;;;;5115217;28;20413;-84
2021/09/30 09:04:17;;;;;;;23.40;21.90;;;;;;;;;;5115281;28;20445;-85
2021/09/30 09:06:47;;;;;;;25.40;23.57;;;;;;;;;;5115112;28;20490;-83
2021/09/30 09:09:24;;;;;;;22.77;21.37;;;;;;;;;;5115013;28;20476;-84
2021/09/30 09:11:52;;;;;;;25.77;23.63;;;;;;;;;;5114964;28;20435;-84
2021/09/30 09:14:25;;;;;;;24.13;22.17;;;;;;;;;;5114572;28;20436;-83
2021/09/30 09:16:56;;;;;;;25.40;23.40;;;;;;;;;;5114622;28;20425;-83
2021/09/30 09:19:31;;;;;;;26.90;25.10;;;;;;;;;;5096044;28;20444;-83
2021/09/30 09:22:04;;;;;;;25.60;23.47;;;;;;;;;;5095856;28;20424;-82
2021/09/30 09:24:31;;;;;;;28.07;25.67;;;;;;;;;;5114323;28;20468;-82
2021/09/30 09:26:59;;;;;;;26.40;24.50;;;;;;;;;;5096132;28;20438;-82
2021/09/30 09:29:30;;;;;;;28.43;26.53;;;;;;;;;;5113786;28;20443;-82
2021/09/30 09:31:59;;;;;;;26.27;24.57;;;;;;;;;;5113784;28;20461;-86
2021/09/30 09:34:29;;;;;;;28.17;26.03;;;;;;;;;;5113879;28;20460;-81
2021/09/30 09:36:57;;;;;;;27.33;25.73;;;;;;;;;;5113866;28;20426;-81
2021/09/30 09:39:42;;;;;;;28.37;26.30;;;;;;;;;;5113945;28;20433;-83
2021/09/30 09:42:11;;;;;;;26.23;24.33;;;;;;;;;;5113775;28;20439;-82
2021/09/30 09:44:52;;;;;;;25.20;23.80;;;;;;;;;;5113699;28;20410;-82
2021/09/30 09:47:24;;;;;;;26.07;24.40;;;;;;;;;;5113726;28;20445;-82
2021/09/30 09:50:10;;;;;;;26.67;25.17;;;;;;;;;;5113958;28;20418;-82
2021/09/30 09:52:42;;;;;;;26.40;24.90;;;;;;;;;;5113511;28;20413;-82
2021/09/30 09:55:10;;;;;;;27.50;25.40;;;;;;;;;;5113537;28;20434;-80
2021/09/30 09:57:40;;;;;;;27.07;25.30;;;;;;;;;;5113988;28;20780;-81
2021/09/30 10:00:16;;;;;;;26.70;24.70;;;;;;;;;;5113935;28;20498;-81
2021/09/30 10:02:44;;;;;;;26.27;24.07;;;;;;;;;;5113946;28;20418;-81
2021/09/30 10:05:11;;;;;;;24.97;23.20;;;;;;;;;;5113098;28;20845;-82
2021/09/30 10:07:39;;;;;;;25.47;23.60;;;;;;;;;;5113319;28;20831;-81
2021/09/30 10:10:07;;;;;;;25.10;23.70;;;;;;;;;;5113788;28;20457;-81
2021/09/30 10:12:35;;;;;;;24.33;23.00;;;;;;;;;;5113280;28;20429;-81
2021/09/30 10:15:02;;;;;;;24.07;22.47;;;;;;;;;;5113239;28;20411;-81
2021/09/30 10:17:31;;;;;;;22.43;21.33;;;;;;;;;;5113380;28;20407;-81
2021/09/30 10:19:59;;;;;;;23.13;21.20;;;;;;;;;;5113245;28;20407;-81
2021/09/30 10:22:27;;;;;;;23.70;22.43;;;;;;;;;;5113097;28;20428;-86
2021/09/30 10:24:56;;;;;;;22.23;20.97;;;;;;;;;;5113500;28;20439;-85
2021/09/30 10:27:23;;;;;;;21.90;20.50;;;;;;;;;;5094782;28;20473;-82
2021/09/30 10:29:51;;;;;;;22.07;20.17;;;;;;;;;;5113465;28;20418;-81
2021/09/30 10:32:20;;;;;;;21.30;19.93;;;;;;;;;;5112943;28;20414;-79
2021/09/30 10:34:50;;;;;;;22.20;20.80;;;;;;;;;;5113130;28;20425;-80
2021/09/30 10:37:19;;;;;;;20.50;19.13;;;;;;;;;;5113439;28;20444;-82
2021/09/30 10:39:48;;;;;;;21.07;19.60;;;;;;;;;;5095318;28;20780;-81
2021/09/30 10:42:30;;;;;;;22.43;20.57;;;;;;;;;;5113093;28;20418;-82
2021/09/30 10:45:11;;;;;;;22.47;20.77;;;;;;;;;;5112532;28;20812;-82
2021/09/30 10:47:38;;;;;;;22.30;20.83;;;;;;;;;;5113386;28;20489;-82
2021/09/30 10:50:08;;;;;;;21.53;19.83;;;;;;;;;;5113230;28;20407;-82
2021/09/30 10:52:36;;;;;;;21.97;19.93;;;;;;;;;;5095368;28;20451;-83
2021/09/30 10:55:18;;;;;;;22.67;21.10;;;;;;;;;;5113053;28;20457;-82
2021/09/30 10:57:47;;;;;;;22.03;20.63;;;;;;;;;;5100471;28;20435;-84
2021/09/30 11:00:35;;;;;;;21.33;20.03;;;;;;;;;;5113086;28;20483;-84
2021/09/30 11:03:20;;;;;;;21.90;20.00;;;;;;;;;;5113155;28;20427;-83
2021/09/30 11:06:09;;;;;;;21.33;19.70;;;;;;;;;;5112983;28;20541;-84
2021/09/30 11:08:36;;;;;;;21.90;20.13;;;;;;;;;;5113448;28;20498;-83
2021/09/30 11:11:11;;;;;;;22.00;20.13;;;;;;;;;;5113488;28;20403;-83
2021/09/30 11:13:39;;;;;;;21.73;20.50;;;;;;;;;;5116219;28;20472;-83
2021/09/30 11:16:08;;;;;;;19.33;18.30;;;;;;;;;;5115665;28;20444;-80
2021/09/30 11:18:42;;;;;;;21.77;20.20;;;;;;;;;;5117033;28;20423;-84
2021/09/30 11:21:28;;;;;;;21.57;19.97;;;;;;;;;;5117214;28;20908;-84
2021/09/30 11:23:58;;;;;;;21.10;19.50;;;;;;;;;;5116933;28;20438;-85
2021/09/30 11:26:25;;;;;;;21.67;20.00;;;;;;;;;;5117012;28;20456;-84
2021/09/30 11:28:53;;;;;;;21.47;20.17;;;;;;;;;;5116730;28;20458;-84
2021/09/30 11:31:25;;;;;;;23.20;21.30;;;;;;;;;;5117020;28;20418;-85
2021/09/30 11:33:53;;;;;;;22.33;20.73;;;;;;;;;;5117012;28;20429;-85
2021/09/30 11:36:20;;;;;;;21.30;20.10;;;;;;;;;;5116964;28;20409;-85
2021/09/30 11:38:48;;;;;;;22.13;20.63;;;;;;;;;;5098881;28;20472;-84
2021/09/30 11:41:18;;;;;;;23.20;21.40;;;;;;;;;;5116251;28;20437;-82
2021/09/30 11:43:49;;;;;;;22.40;20.63;;;;;;;;;;5115948;28;20467;-81
2021/09/30 11:46:25;;;;;;;21.80;19.93;;;;;;;;;;5115726;28;20395;-82
2021/09/30 11:48:56;;;;;;;21.47;19.83;;;;;;;;;;5115649;28;20494;-82
2021/09/30 11:51:29;;;;;;;21.73;20.23;;;;;;;;;;5115943;28;20490;-82
2021/09/30 11:53:57;;;;;;;22.60;21.00;;;;;;;;;;5115632;28;20404;-84
2021/09/30 11:56:25;;;;;;;22.00;20.40;;;;;;;;;;5115935;28;20415;-84
2021/09/30 11:58:59;;;;;;;23.97;22.07;;;;;;;;;;5098584;28;20804;-84
2021/09/30 12:01:34;;;;;;;23.23;21.43;;;;;;;;;;5115843;28;21014;-84
2021/09/30 12:04:01;;;;;;;22.10;20.70;;;;;;;;;;5115938;28;20445;-84
2021/09/30 12:06:38;;;;;;;23.10;21.40;;;;;;;;;;5098290;28;20885;-84
2021/09/30 12:09:07;;;;;;;21.40;20.10;;;;;;;;;;5116083;28;20507;-84
2021/09/30 12:11:36;;;;;;;23.67;21.70;;;;;;;;;;5116100;28;20423;-84
2021/09/30 12:14:05;;;;;;;21.93;20.37;;;;;;;;;;5116386;28;20440;-84
2021/09/30 12:16:32;;;;;;;22.13;20.53;;;;;;;;;;5116165;28;20852;-84
2021/09/30 12:19:00;;;;;;;23.27;21.40;;;;;;;;;;5115541;28;20499;-85
2021/09/30 12:21:35;;;;;;;23.10;21.17;;;;;;;;;;5115398;28;20462;-84
2021/09/30 12:24:03;;;;;;;24.03;22.33;;;;;;;;;;5115422;28;20464;-83
2021/09/30 12:26:31;;;;;;;22.80;21.23;;;;;;;;;;5115702;28;20452;-84
2021/09/30 12:29:00;;;;;;;23.43;21.73;;;;;;;;;;5115568;28;20475;-83
2021/09/30 12:31:29;;;;;;;23.40;21.70;;;;;;;;;;5097283;28;20447;-83
2021/09/30 12:33:57;;;;;;;22.77;21.27;;;;;;;;;;5115362;28;20491;-83
2021/09/30 12:36:25;;;;;;;25.50;23.30;;;;;;;;;;5115615;28;20438;-83
2021/09/30 12:38:59;;;;;;;22.73;21.00;;;;;;;;;;5115643;28;20450;-83
2021/09/30 12:41:26;;;;;;;22.57;20.80;;;;;;;;;;5115153;28;20425;-84
2021/09/30 12:43:54;;;;;;;21.27;19.67;;;;;;;;;;5115095;28;20497;-84
2021/09/30 12:46:23;;;;;;;22.70;21.00;;;;;;;;;;5115249;28;20429;-84
2021/09/30 12:48:51;;;;;;;22.50;20.90;;;;;;;;;;5115353;28;20465;-84
2021/09/30 12:51:19;;;;;;;23.00;21.23;;;;;;;;;;5115212;28;20813;-84
2021/09/30 12:53:48;;;;;;;24.37;22.17;;;;;;;;;;5115102;28;20432;-82
2021/09/30 12:56:17;;;;;;;23.83;22.33;;;;;;;;;;5115327;28;20446;-83
2021/09/30 12:58:47;;;;;;;25.17;22.97;;;;;;;;;;5115635;28;20407;-85
2021/09/30 13:01:22;;;;;;;24.30;22.33;;;;;;;;;;5115303;28;20532;-86
2021/09/30 13:04:10;;;;;;;22.90;21.20;;;;;;;;;;5115419;28;20399;-87
2021/09/30 13:06:38;;;;;;;22.80;21.37;;;;;;;;;;5074443;28;20522;-86
2021/09/30 13:09:06;;;;;;;24.27;22.57;;;;;;;;;;5074114;28;20493;-84
2021/09/30 13:11:34;;;;;;;23.60;21.70;;;;;;;;;;5074554;28;20450;-89
2021/09/30 13:14:19;;;;;;;22.53;20.93;;;;;;;;;;5074797;28;20476;-85
2021/09/30 13:16:47;;;;;;;22.33;20.73;;;;;;;;;;5074327;28;20408;-85
2021/09/30 13:19:17;;;;;;;23.53;21.73;;;;;;;;;;5074922;28;20444;-85
2021/09/30 13:21:57;;;;;;;22.60;21.13;;;;;;;;;;5073370;28;20499;-86
2021/09/30 13:24:25;;;;;;;22.80;21.30;;;;;;;;;;5074468;28;20917;-85
2021/09/30 13:26:53;;;;;;;23.43;21.50;;;;;;;;;;5074411;28;20416;-86
2021/09/30 13:29:20;;;;;;;23.40;21.10;;;;;;;;;;5074485;28;20460;-86
2021/09/30 13:31:47;;;;;;;23.30;21.00;;;;;;;;;;5074269;28;20428;-86
2021/09/30 13:34:16;;;;;;;23.63;21.77;;;;;;;;;;5074271;28;20420;-86
2021/09/30 13:36:44;;;;;;;23.60;21.83;;;;;;;;;;5074167;28;20458;-86
2021/09/30 13:39:11;;;;;;;23.90;21.33;;;;;;;;;;5074515;28;20442;-87
2021/09/30 13:41:38;;;;;;;23.07;21.00;;;;;;;;;;5074412;28;20437;-86
2021/09/30 13:44:06;;;;;;;23.23;21.43;;;;;;;;;;5074292;28;20441;-86
2021/09/30 13:46:33;;;;;;;23.03;21.27;;;;;;;;;;5074290;28;20476;-86
2021/09/30 13:49:01;;;;;;;23.43;21.70;;;;;;;;;;5073023;28;20456;-87
2021/09/30 13:51:30;;;;;;;23.60;21.60;;;;;;;;;;5074344;28;20413;-87
2021/09/30 13:53:58;;;;;;;23.47;21.60;;;;;;;;;;5074251;28;20405;-87
2021/09/30 13:56:26;;;;;;;24.30;21.80;;;;;;;;;;5073989;28;20445;-86
2021/09/30 13:58:53;;;;;;;23.60;21.43;;;;;;;;;;5074448;28;20413;-86
2021/09/30 14:01:21;;;;;;;22.47;21.07;;;;;;;;;;5074185;28;20458;-86
2021/09/30 14:03:48;;;;;;;23.20;21.60;;;;;;;;;;5073994;28;20420;-86
2021/09/30 14:06:17;;;;;;;24.30;22.50;;;;;;;;;;5112082;28;20502;-86
2021/09/30 14:08:46;;;;;;;25.20;23.13;;;;;;;;;;5114162;28;20451;-87
2021/09/30 14:11:14;;;;;;;23.73;22.23;;;;;;;;;;5114478;28;20460;-86
2021/09/30 14:13:41;;;;;;;24.00;22.10;;;;;;;;;;5114752;28;20425;-87
2021/09/30 14:16:09;;;;;;;23.80;22.20;;;;;;;;;;5114530;28;20411;-86
2021/09/30 14:18:37;;;;;;;24.10;22.17;;;;;;;;;;5114481;28;20914;-87
2021/09/30 14:21:04;;;;;;;25.20;23.23;;;;;;;;;;5114249;28;20402;-86
2021/09/30 14:23:32;;;;;;;24.97;23.30;;;;;;;;;;5096407;28;20438;-89
2021/09/30 14:26:01;;;;;;;25.20;23.37;;;;;;;;;;5114731;28;20438;-90
2021/09/30 14:28:29;;;;;;;24.87;23.30;;;;;;;;;;5114170;28;20474;-89
2021/09/30 14:30:57;;;;;;;22.70;21.30;;;;;;;;;;5114228;28;20474;-90
2021/09/30 14:33:25;;;;;;;24.57;22.90;;;;;;;;;;5114499;28;20436;-90
2021/09/30 14:35:52;;;;;;;25.20;23.50;;;;;;;;;;5114544;28;20791;-88
2021/09/30 14:38:20;;;;;;;25.03;23.10;;;;;;;;;;5114558;28;20407;-88
2021/09/30 14:40:50;;;;;;;25.80;24.00;;;;;;;;;;5114537;28;20405;-88
2021/09/30 14:43:19;;;;;;;23.80;22.13;;;;;;;;;;5114541;28;20479;-88
2021/09/30 14:45:47;;;;;;;24.13;22.30;;;;;;;;;;5114059;28;20413;-88
2021/09/30 14:48:14;;;;;;;24.50;22.90;;;;;;;;;;5116934;28;20770;-88
2021/09/30 14:50:42;;;;;;;24.40;22.50;;;;;;;;;;5118357;28;20442;-88
2021/09/30 14:53:10;;;;;;;24.90;22.77;;;;;;;;;;5117938;28;20432;-88
2021/09/30 14:55:37;;;;;;;23.90;22.27;;;;;;;;;;5117931;28;20440;-88
2021/09/30 14:58:05;;;;;;;24.27;22.23;;;;;;;;;;5117831;28;20446;-89
2021/09/30 15:00:34;;;;;;;24.93;23.13;;;;;;;;;;5117878;28;20444;-88
2021/09/30 15:03:02;;;;;;;25.07;23.13;;;;;;;;;;5118118;28;20885;-88
2021/09/30 15:05:30;;;;;;;24.20;22.50;;;;;;;;;;5117672;28;20487;-88
2021/09/30 15:07:58;;;;;;;24.07;22.47;;;;;;;;;;5117618;28;20458;-88
2021/09/30 15:10:25;;;;;;;23.20;21.80;;;;;;;;;;5117441;28;20458;-87
2021/09/30 15:12:52;;;;;;;23.67;22.10;;;;;;;;;;5117467;28;20442;-88
2021/09/30 15:15:20;;;;;;;24.47;22.57;;;;;;;;;;5117842;28;20415;-88
2021/09/30 15:18:01;;;;;;;25.00;23.60;;;;;;;;;;5099344;28;21016;-88
2021/09/30 15:23:15;;;;;;;25.57;23.90;;;;;;;;;;5117447;28;20430;-87
2021/09/30 15:25:43;;;;;;;24.47;22.97;;;;;;;;;;5117468;28;20831;-88
2021/09/30 15:28:14;;;;;;;24.00;22.60;;;;;;;;;;5117482;28;20418;-88
2021/09/30 15:30:41;;;;;;;25.13;23.47;;;;;;;;;;5116760;28;20549;-88
2021/09/30 15:33:12;;;;;;;24.10;22.50;;;;;;;;;;5117393;28;20901;-88
2021/09/30 15:35:40;;;;;;;26.17;24.40;;;;;;;;;;5116988;28;20418;-87
2021/09/30 15:38:07;;;;;;;24.00;22.33;;;;;;;;;;5116986;28;20426;-87
2021/09/30 15:40:35;;;;;;;23.27;21.87;;;;;;;;;;5117606;28;20440;-88
2021/09/30 15:43:02;;;;;;;23.50;21.93;;;;;;;;;;5117066;28;20403;-88
2021/09/30 15:45:29;;;;;;;23.40;22.07;;;;;;;;;;5116923;28;20408;-88
2021/09/30 15:47:57;;;;;;;23.37;21.87;;;;;;;;;;5116999;28;20940;-88
2021/09/30 15:50:25;;;;;;;23.00;21.40;;;;;;;;;;5116687;28;20454;-88
2021/09/30 15:52:53;;;;;;;23.83;22.00;;;;;;;;;;5116718;28;20885;-87
2021/09/30 15:55:21;;;;;;;22.60;21.10;;;;;;;;;;5099169;28;20455;-91
2021/09/30 15:57:48;;;;;;;23.13;21.73;;;;;;;;;;5116369;28;20445;-91
2021/09/30 16:00:16;;;;;;;22.00;20.60;;;;;;;;;;5116864;28;20466;-89
2021/09/30 16:02:43;;;;;;;23.20;21.60;;;;;;;;;;5116811;28;20874;-89
2021/09/30 16:05:11;;;;;;;22.33;21.00;;;;;;;;;;5116774;28;20462;-89
2021/09/30 16:07:40;;;;;;;21.73;20.47;;;;;;;;;;5116528;28;20896;-89
2021/09/30 16:10:07;;;;;;;22.37;20.97;;;;;;;;;;5116767;28;20450;-89
2021/09/30 16:12:35;;;;;;;22.43;21.03;;;;;;;;;;5116124;28;20452;-89
2021/09/30 16:15:02;;;;;;;22.53;20.77;;;;;;;;;;5116381;28;20789;-89
2021/09/30 16:17:30;;;;;;;23.00;21.60;;;;;;;;;;5116853;28;20411;-89
2021/09/30 16:19:57;;;;;;;21.90;20.40;;;;;;;;;;5116990;28;20428;-88
2021/09/30 16:22:25;;;;;;;21.73;20.40;;;;;;;;;;5098646;28;20428;-89
2021/09/30 16:24:54;;;;;;;21.37;19.97;;;;;;;;;;5116057;28;20422;-89
2021/09/30 16:27:23;;;;;;;21.10;19.70;;;;;;;;;;5116097;28;20449;-89
2021/09/30 16:29:50;;;;;;;22.33;20.83;;;;;;;;;;5115869;28;20485;-88
2021/09/30 16:32:18;;;;;;;22.37;20.83;;;;;;;;;;5116206;28;20964;-89
2021/09/30 16:34:45;;;;;;;22.40;21.00;;;;;;;;;;5098424;28;20407;-93
2021/09/30 16:37:12;;;;;;;22.50;21.10;;;;;;;;;;5116479;28;20429;-94
2021/09/30 16:39:40;;;;;;;21.97;20.47;;;;;;;;;;5116449;28;20432;-92
2021/09/30 16:42:08;;;;;;;22.60;21.13;;;;;;;;;;5116567;28;20957;-94
2021/09/30 16:44:36;;;;;;;23.17;21.60;;;;;;;;;;5116077;28;20518;-94
2021/09/30 16:47:04;;;;;;;22.50;20.97;;;;;;;;;;5109901;28;20778;-94
2021/09/30 16:49:31;;;;;;;22.23;21.00;;;;;;;;;;5095965;28;20463;-94
2021/09/30 16:51:59;;;;;;;23.43;22.00;;;;;;;;;;5096981;28;20460;-94
2021/09/30 16:54:27;;;;;;;24.03;22.20;;;;;;;;;;5101984;28;20917;-94
2021/09/30 16:56:54;;;;;;;22.70;21.50;;;;;;;;;;5096126;28;20835;-93
2021/09/30 16:59:23;;;;;;;23.03;21.37;;;;;;;;;;5083047;28;20423;-94
2021/09/30 17:01:57;;;;;;;22.73;21.30;;;;;;;;;;5081948;28;20935;-92
2021/09/30 17:04:25;;;;;;;22.43;21.23;;;;;;;;;;5104991;28;20819;-95